createdAt,value
2019-02-16T00:01:23.382Z,98.10
2019-02-16T00:03:53.753Z,97.50
2019-02-16T00:06:24.122Z,97.60
2019-02-16T00:08:54.790Z,97.80
2019-02-16T00:11:25.146Z,97.80
2019-02-16T00:13:55.481Z,98.80
2019-02-16T00:16:25.949Z,98.40
2019-02-16T00:18:56.352Z,98.60
2019-02-16T00:21:26.781Z,98.70
2019-02-16T00:23:57.437Z,98.40
2019-02-16T00:26:27.773Z,98.50
2019-02-16T00:28:59.199Z,97.90
2019-02-16T00:31:29.533Z,98.60
2019-02-16T00:33:59.893Z,99.10
2019-02-16T00:36:30.225Z,98.80
2019-02-16T00:39:00.583Z,98.40
2019-02-16T00:41:30.985Z,98.20
2019-02-16T00:44:01.340Z,99.20
2019-02-16T00:46:31.681Z,99.50
2019-02-16T00:49:02.151Z,99.50
2019-02-16T00:51:32.478Z,99.20
2019-02-16T00:54:02.850Z,98.60
2019-02-16T00:56:33.181Z,97.90
2019-02-16T00:59:03.533Z,98.60
2019-02-16T01:01:33.897Z,98.50
2019-02-16T01:04:04.357Z,98.90
2019-02-16T01:06:34.685Z,98.40
2019-02-16T01:09:06.797Z,99.20
2019-02-16T01:11:37.305Z,99.10
2019-02-16T01:14:07.762Z,99.20
2019-02-16T01:16:38.093Z,99.30
2019-02-16T01:19:08.765Z,98.50
2019-02-16T01:21:39.102Z,98.10
2019-02-16T01:24:09.500Z,98.80
2019-02-16T01:26:39.821Z,98.70
2019-02-16T01:29:10.494Z,99.10
2019-02-16T01:31:40.829Z,99.10
2019-02-16T01:34:11.186Z,99.00
2019-02-16T01:36:41.509Z,98.40
2019-02-16T01:39:12.965Z,98.60
2019-02-16T01:41:43.289Z,99.60
2019-02-16T01:44:13.645Z,99.50
2019-02-16T01:46:44.008Z,99.50
2019-02-16T01:49:14.342Z,99.60
2019-02-16T01:51:44.698Z,99.90
2019-02-16T01:54:15.901Z,99.60
2019-02-16T01:56:46.265Z,99.90
2019-02-16T01:59:16.593Z,99.50
2019-02-16T02:01:47.026Z,99.00
2019-02-16T02:04:17.357Z,99.70
2019-02-16T02:06:47.722Z,99.90
2019-02-16T02:09:18.386Z,99.90
2019-02-16T02:11:48.713Z,99.90
2019-02-16T02:14:19.080Z,99.60
2019-02-16T02:16:49.461Z,99.40
2019-02-16T02:19:19.874Z,99.50
2019-02-16T02:21:50.201Z,99.90
2019-02-16T02:24:20.645Z,99.90
2019-02-16T02:26:52.053Z,99.70
2019-02-16T02:29:22.429Z,99.90
2019-02-16T02:31:52.770Z,99.90
2019-02-16T02:34:23.117Z,99.30
2019-02-16T02:36:53.445Z,99.90
2019-02-16T02:39:23.803Z,99.80
2019-02-16T02:41:54.161Z,99.90
2019-02-16T02:44:24.516Z,99.80
2019-02-16T02:46:54.869Z,99.70
2019-02-16T02:49:25.215Z,99.10
2019-02-16T02:51:55.542Z,99.00
2019-02-16T02:54:25.895Z,99.10
2019-02-16T02:56:56.265Z,99.70
2019-02-16T02:59:26.602Z,99.10
2019-02-16T03:01:56.970Z,99.70
2019-02-16T03:04:27.305Z,99.70
2019-02-16T03:06:57.673Z,99.70
2019-02-16T03:09:28.025Z,99.60
2019-02-16T03:11:58.388Z,99.10
2019-02-16T03:14:28.754Z,99.50
2019-02-16T03:16:59.092Z,99.60
2019-02-16T03:19:29.616Z,99.90
2019-02-16T03:22:02.757Z,99.50
2019-02-16T03:24:43.842Z,99.50
2019-02-16T03:27:42.050Z,99.30
2019-02-16T03:30:57.672Z,99.00
2019-02-16T03:33:58.589Z,99.40
2019-02-16T03:36:51.226Z,99.90
2019-02-16T03:39:42.862Z,99.40
2019-02-16T03:42:13.225Z,99.90
2019-02-16T03:44:43.569Z,99.90
2019-02-16T03:47:13.942Z,99.10
2019-02-16T03:49:44.284Z,99.80
2019-02-16T03:52:14.651Z,99.90
2019-02-16T03:54:45.015Z,99.90
2019-02-16T03:57:15.381Z,99.90
2019-02-16T03:59:45.732Z,99.50
2019-02-16T04:02:16.125Z,99.60
2019-02-16T04:04:46.497Z,99.90
2019-02-16T04:07:16.879Z,99.90
2019-02-16T04:09:47.225Z,99.90
2019-02-16T04:12:17.592Z,99.90
2019-02-16T04:14:48.082Z,99.90
2019-02-16T04:17:18.412Z,99.90
2019-02-16T04:19:48.824Z,99.50
2019-02-16T04:22:24.714Z,99.50
2019-02-16T04:24:52.597Z,99.80
2019-02-16T04:27:24.012Z,99.90
2019-02-16T04:29:54.383Z,99.80
2019-02-16T04:32:24.713Z,99.90
2019-02-16T04:34:55.091Z,99.90
2019-02-16T04:37:25.425Z,99.70
2019-02-16T04:39:55.801Z,99.60
2019-02-16T04:42:26.375Z,99.50
2019-02-16T04:44:56.729Z,99.90
2019-02-16T04:47:27.086Z,99.90
2019-02-16T04:49:57.418Z,99.60
2019-02-16T04:52:34.320Z,99.90
2019-02-16T04:54:59.830Z,99.80
2019-02-16T04:57:30.417Z,99.60
2019-02-16T05:00:00.753Z,99.50
2019-02-16T05:02:31.136Z,99.60
2019-02-16T05:05:01.477Z,99.90
2019-02-16T05:07:31.860Z,99.80
2019-02-16T05:10:02.206Z,99.10
2019-02-16T05:12:32.570Z,99.30
2019-02-16T05:15:02.926Z,99.40
2019-02-16T05:17:33.386Z,99.40
2019-02-16T05:20:04.677Z,99.70
2019-02-16T05:22:43.855Z,99.90
2019-02-16T05:25:07.010Z,99.60
2019-02-16T05:27:37.341Z,99.40
2019-02-16T05:30:07.784Z,99.70
2019-02-16T05:32:38.117Z,99.50
2019-02-16T05:35:08.513Z,99.30
2019-02-16T05:37:38.846Z,99.80
2019-02-16T05:40:09.420Z,99.40
2019-02-16T05:42:39.762Z,99.90
2019-02-16T05:45:10.244Z,99.90
2019-02-16T05:47:40.569Z,99.30
2019-02-16T05:50:10.941Z,99.50
2019-02-16T05:52:41.274Z,99.40
2019-02-16T05:55:11.646Z,99.30
2019-02-16T05:57:42.002Z,99.70
2019-02-16T06:00:13.548Z,99.70
2019-02-16T06:02:43.886Z,99.80
2019-02-16T06:05:15.335Z,99.90
2019-02-16T06:07:45.673Z,99.30
2019-02-16T06:10:16.137Z,99.50
2019-02-16T06:12:46.469Z,99.30
2019-02-16T06:15:16.857Z,99.60
2019-02-16T06:17:47.197Z,99.90
2019-02-16T06:20:17.565Z,99.90
2019-02-16T06:22:48.149Z,99.80
2019-02-16T06:25:18.604Z,99.60
2019-02-16T06:27:48.924Z,99.80
2019-02-16T06:30:19.378Z,99.50
2019-02-16T06:32:49.719Z,99.60
2019-02-16T06:35:33.877Z,99.90
2019-02-16T06:38:04.217Z,99.40
2019-02-16T06:40:34.584Z,99.50
2019-02-16T06:43:04.919Z,99.90
2019-02-16T06:45:35.293Z,99.80
2019-02-16T06:48:05.630Z,99.70
2019-02-16T06:50:37.193Z,99.70
2019-02-16T06:53:13.277Z,99.90
2019-02-16T06:56:01.524Z,99.90
2019-02-16T06:58:31.934Z,99.70
2019-02-16T07:01:02.325Z,99.70
2019-02-16T07:03:32.662Z,99.70
2019-02-16T07:06:03.141Z,99.90
2019-02-16T07:08:33.481Z,99.70
2019-02-16T07:11:03.929Z,99.50
2019-02-16T07:13:34.277Z,99.90
2019-02-16T07:16:22.478Z,99.70
2019-02-16T07:18:57.929Z,99.40
2019-02-16T07:21:28.317Z,99.80
2019-02-16T07:23:58.658Z,99.70
2019-02-16T07:26:29.117Z,99.80
2019-02-16T07:28:59.462Z,99.90
2019-02-16T07:31:29.830Z,99.80
2019-02-16T07:34:00.169Z,99.80
2019-02-16T07:36:30.560Z,99.90
2019-02-16T07:39:00.941Z,99.90
2019-02-16T07:41:32.397Z,99.80
2019-02-16T07:44:27.486Z,99.90
2019-02-16T07:47:06.975Z,99.90
2019-02-16T07:49:56.575Z,99.90
2019-02-16T07:52:57.961Z,99.80
2019-02-16T07:55:38.844Z,99.90
2019-02-16T07:58:14.221Z,99.90
2019-02-16T08:01:02.119Z,99.90
2019-02-16T08:03:52.657Z,99.90
2019-02-16T08:06:47.973Z,99.90
2019-02-16T08:09:40.414Z,99.90
2019-02-16T08:12:29.708Z,99.90
2019-02-16T08:15:05.317Z,99.90
2019-02-16T08:18:02.454Z,99.80
2019-02-16T08:20:41.945Z,99.60
2019-02-16T08:23:21.738Z,99.70
2019-02-16T08:26:16.964Z,99.20
2019-02-16T08:28:59.257Z,98.50
2019-02-16T08:31:35.545Z,97.30
2019-02-16T08:34:37.218Z,95.20
2019-02-16T08:37:44.907Z,94.20
2019-02-16T08:40:27.493Z,90.20
2019-02-16T08:43:07.287Z,75.50
2019-02-16T08:45:50.161Z,73.20
2019-02-16T08:48:30.436Z,70.70
2019-02-16T08:51:11.905Z,70.30
2019-02-16T08:54:04.066Z,70.80
2019-02-16T08:56:56.401Z,72.10
2019-02-16T08:59:43.739Z,64.90
2019-02-16T09:02:30.517Z,57.60
2019-02-16T09:05:11.137Z,59.70
2019-02-16T09:08:06.397Z,66.40
2019-02-16T09:11:01.913Z,60.90
2019-02-16T09:13:48.209Z,57.80
2019-02-16T09:16:38.383Z,57.80
2019-02-16T09:19:26.049Z,60.50
2019-02-16T09:22:15.363Z,58.40
2019-02-16T09:24:54.537Z,53.90
2019-02-16T09:27:40.584Z,53.70
2019-02-16T09:30:28.469Z,53.50
2019-02-16T09:33:26.903Z,47.60
2019-02-16T09:36:15.463Z,52.30
2019-02-16T09:39:01.125Z,51.30
2019-02-16T09:41:49.436Z,50.20
2019-02-16T09:44:25.313Z,51.10
2019-02-16T09:47:33.638Z,47.90
2019-02-16T09:50:22.297Z,48.40
2019-02-16T09:53:13.265Z,48.20
2019-02-16T09:56:01.449Z,46.70
2019-02-16T09:58:49.785Z,46.10
2019-02-16T10:01:37.646Z,42.90
2019-02-16T10:04:21.893Z,44.40
2019-02-16T10:07:10.547Z,45.70
2019-02-16T10:10:15.214Z,45.20
2019-02-16T10:12:57.389Z,44.70
2019-02-16T10:15:49.066Z,46.60
2019-02-16T10:18:34.493Z,49.40
2019-02-16T10:21:23.814Z,49.10
2019-02-16T10:24:18.010Z,52.30
2019-02-16T10:27:01.549Z,50.60
2019-02-16T10:30:06.189Z,52.80
2019-02-16T10:32:49.109Z,52.30
2019-02-16T10:35:44.628Z,53.70
2019-02-16T10:38:36.679Z,51.70
2019-02-16T10:41:38.256Z,52.60
2019-02-16T10:44:30.293Z,51.40
2019-02-16T10:47:22.529Z,51.60
2019-02-16T10:50:03.137Z,50.50
2019-02-16T10:52:55.605Z,52.50
2019-02-16T10:55:41.365Z,52.10
2019-02-16T10:58:21.966Z,51.10
2019-02-16T11:01:09.864Z,51.80
2019-02-16T11:03:53.769Z,51.60
2019-02-16T11:06:52.129Z,52.70
2019-02-16T11:09:50.309Z,52.70
2019-02-16T11:12:43.753Z,56.10
2019-02-16T11:15:44.465Z,54.80
2019-02-16T11:18:33.742Z,54.00
2019-02-16T11:21:41.339Z,53.30
2019-02-16T11:24:18.117Z,52.80
2019-02-16T11:27:06.405Z,51.40
2019-02-16T11:29:48.708Z,53.20
2019-02-16T11:32:37.365Z,53.60
2019-02-16T11:35:19.790Z,53.10
2019-02-16T11:37:57.669Z,55.50
2019-02-16T11:40:53.001Z,52.70
2019-02-16T11:43:45.169Z,57.10
2019-02-16T11:46:46.785Z,53.00
2019-02-16T11:49:26.636Z,53.70
2019-02-16T11:52:24.937Z,51.00
2019-02-16T11:55:21.549Z,54.20
2019-02-16T11:58:09.494Z,54.00
2019-02-16T12:00:58.897Z,55.20
2019-02-16T12:03:44.257Z,52.00
2019-02-16T12:06:37.417Z,53.00
2019-02-16T12:09:28.234Z,51.40
2019-02-16T12:12:08.975Z,55.90
2019-02-16T12:14:59.451Z,54.70
2019-02-16T12:17:54.705Z,53.20
2019-02-16T12:20:36.849Z,52.20
2019-02-16T12:23:32.188Z,52.90
2019-02-16T12:26:17.345Z,49.90
2019-02-16T12:29:15.810Z,49.30
2019-02-16T12:32:11.759Z,50.50
2019-02-16T12:34:59.997Z,48.80
2019-02-16T12:37:48.449Z,50.60
2019-02-16T12:40:37.749Z,48.40
2019-02-16T12:43:27.021Z,49.40
2019-02-16T12:46:08.705Z,48.10
2019-02-16T12:48:49.553Z,47.70
2019-02-16T12:51:44.929Z,48.30
2019-02-16T12:54:24.393Z,48.10
2019-02-16T12:57:03.149Z,47.70
2019-02-16T13:00:04.525Z,47.30
2019-02-16T13:02:42.713Z,48.20
2019-02-16T13:05:28.169Z,46.30
2019-02-16T13:08:20.704Z,47.60
2019-02-16T13:11:12.857Z,49.10
2019-02-16T13:14:08.181Z,48.60
2019-02-16T13:16:56.234Z,47.20
2019-02-16T13:19:51.533Z,46.90
2019-02-16T13:22:30.237Z,48.50
2019-02-16T13:25:06.737Z,49.10
2019-02-16T13:27:56.009Z,46.70
2019-02-16T13:30:35.966Z,45.80
2019-02-16T13:33:29.289Z,47.30
2019-02-16T13:36:17.539Z,48.00
2019-02-16T13:38:56.262Z,47.80
2019-02-16T13:41:32.965Z,48.40
2019-02-16T13:44:22.263Z,45.70
2019-02-16T13:47:11.557Z,47.40
2019-02-16T13:50:07.401Z,45.80
2019-02-16T13:52:54.130Z,46.80
2019-02-16T13:55:43.205Z,46.70
2019-02-16T13:58:32.502Z,45.60
2019-02-16T14:01:07.469Z,46.30
2019-02-16T14:03:59.556Z,45.30
2019-02-16T14:06:48.837Z,45.60
2019-02-16T14:09:50.308Z,46.80
2019-02-16T14:12:38.484Z,48.00
2019-02-16T14:15:32.485Z,46.50
2019-02-16T14:18:02.905Z,48.10
2019-02-16T14:20:33.261Z,46.90
2019-02-16T14:23:03.593Z,47.00
2019-02-16T14:25:47.724Z,47.00
2019-02-16T14:28:19.037Z,46.40
2019-02-16T14:30:49.417Z,45.50
2019-02-16T14:33:19.749Z,45.30
2019-02-16T14:35:50.130Z,45.20
2019-02-16T14:38:39.393Z,42.30
2019-02-16T14:41:09.846Z,43.00
2019-02-16T14:43:40.170Z,43.80
2019-02-16T14:46:10.520Z,45.90
2019-02-16T14:48:40.882Z,44.60
2019-02-16T14:51:11.229Z,44.90
2019-02-16T14:53:41.592Z,45.30
2019-02-16T14:56:11.933Z,45.00
2019-02-16T14:58:42.297Z,46.10
2019-02-16T15:01:12.629Z,45.50
2019-02-16T15:03:43.017Z,45.50
2019-02-16T15:06:13.341Z,43.90
2019-02-16T15:08:43.721Z,44.50
2019-02-16T15:11:14.041Z,46.30
2019-02-16T15:13:45.094Z,47.00
2019-02-16T15:16:15.642Z,48.80
2019-02-16T15:18:46.039Z,48.20
2019-02-16T15:21:16.377Z,50.50
2019-02-16T15:23:46.737Z,49.70
2019-02-16T15:26:17.107Z,49.60
2019-02-16T15:28:47.433Z,50.30
2019-02-16T15:31:17.828Z,49.80
2019-02-16T15:33:48.138Z,51.30
2019-02-16T15:36:23.864Z,51.30
2019-02-16T15:38:50.445Z,50.80
2019-02-16T15:41:21.178Z,51.00
2019-02-16T15:43:51.527Z,50.90
2019-02-16T15:46:21.897Z,52.00
2019-02-16T15:48:52.225Z,52.50
2019-02-16T15:51:22.626Z,53.20
2019-02-16T15:53:52.970Z,51.70
2019-02-16T15:56:24.400Z,54.00
2019-02-16T15:58:54.854Z,53.40
2019-02-16T16:01:25.230Z,55.00
2019-02-16T16:03:56.005Z,54.60
2019-02-16T16:06:26.378Z,55.40
2019-02-16T16:09:14.281Z,56.10
2019-02-16T16:12:02.312Z,58.50
2019-02-16T16:14:49.633Z,61.10
2019-02-16T16:17:31.321Z,61.60
2019-02-16T16:20:20.621Z,63.20
2019-02-16T16:23:09.170Z,64.30
2019-02-16T16:26:04.776Z,63.80
2019-02-16T16:29:14.041Z,66.40
2019-02-16T16:31:55.709Z,67.80
2019-02-16T16:34:52.387Z,68.80
2019-02-16T16:37:43.661Z,69.00
2019-02-16T16:40:42.213Z,70.50
2019-02-16T16:43:29.358Z,72.00
2019-02-16T16:46:13.201Z,72.70
2019-02-16T16:49:12.549Z,73.30
2019-02-16T16:52:01.843Z,74.50
2019-02-16T16:54:41.790Z,74.90
2019-02-16T16:57:22.685Z,76.40
2019-02-16T17:00:10.626Z,76.70
2019-02-16T17:03:03.188Z,76.80
2019-02-16T17:05:51.433Z,76.10
2019-02-16T17:08:46.665Z,78.20
2019-02-16T17:11:32.328Z,78.30
2019-02-16T17:14:13.405Z,79.00
2019-02-16T17:17:01.689Z,80.00
2019-02-16T17:19:38.826Z,79.30
2019-02-16T17:22:32.063Z,80.50
2019-02-16T17:25:27.582Z,80.70
2019-02-16T17:28:32.185Z,81.40
2019-02-16T17:31:27.485Z,81.80
2019-02-16T17:34:26.092Z,83.80
2019-02-16T17:37:24.204Z,83.30
2019-02-16T17:40:13.477Z,84.20
2019-02-16T17:42:58.025Z,85.20
2019-02-16T17:45:46.317Z,86.40
2019-02-16T17:48:35.601Z,86.60
2019-02-16T17:51:24.876Z,86.60
2019-02-16T17:54:14.161Z,85.80
2019-02-16T17:56:56.369Z,86.90
2019-02-16T17:59:36.753Z,87.10
2019-02-16T18:02:34.928Z,87.60
2019-02-16T18:05:27.067Z,87.50
2019-02-16T18:08:19.437Z,88.30
2019-02-16T18:11:11.733Z,87.70
2019-02-16T18:13:55.664Z,88.50
2019-02-16T18:16:57.141Z,89.40
2019-02-16T18:19:37.527Z,89.10
2019-02-16T18:22:24.049Z,90.00
2019-02-16T18:25:04.457Z,89.40
2019-02-16T18:27:54.481Z,90.10
2019-02-16T18:30:43.072Z,90.30
2019-02-16T18:33:31.033Z,90.50
2019-02-16T18:36:08.113Z,90.40
2019-02-16T18:38:57.882Z,90.10
2019-02-16T18:41:50.281Z,90.60
2019-02-16T18:44:39.580Z,90.30
2019-02-16T18:47:28.373Z,90.60
2019-02-16T18:50:17.795Z,90.70
2019-02-16T18:53:09.817Z,90.90
2019-02-16T18:55:59.139Z,90.90
2019-02-16T18:58:51.185Z,91.20
2019-02-16T19:01:58.726Z,91.30
2019-02-16T19:04:48.042Z,91.50
2019-02-16T19:07:49.313Z,91.70
2019-02-16T19:10:44.729Z,92.70
2019-02-16T19:13:46.090Z,91.60
2019-02-16T19:16:35.353Z,92.60
2019-02-16T19:19:35.697Z,91.90
2019-02-16T19:22:27.811Z,91.70
2019-02-16T19:25:07.085Z,91.90
2019-02-16T19:28:02.549Z,92.20
2019-02-16T19:30:46.809Z,92.00
2019-02-16T19:33:47.969Z,91.70
2019-02-16T19:36:29.509Z,92.50
2019-02-16T19:39:17.700Z,92.20
2019-02-16T19:41:59.884Z,93.00
2019-02-16T19:44:55.207Z,92.50
2019-02-16T19:47:44.342Z,93.20
2019-02-16T19:50:36.354Z,92.70
2019-02-16T19:53:24.720Z,92.20
2019-02-16T19:56:26.953Z,92.70
2019-02-16T19:59:16.383Z,93.60
2019-02-16T20:02:08.149Z,92.80
2019-02-16T20:04:55.073Z,92.70
2019-02-16T20:07:59.780Z,93.40
2019-02-16T20:11:07.289Z,94.00
2019-02-16T20:14:02.543Z,93.00
2019-02-16T20:16:51.812Z,93.20
2019-02-16T20:19:52.973Z,94.10
2019-02-16T20:22:57.977Z,94.80
2019-02-16T20:25:53.661Z,94.60
2019-02-16T20:28:46.253Z,94.10
2019-02-16T20:31:29.537Z,94.60
2019-02-16T20:34:08.421Z,93.30
2019-02-16T20:36:50.163Z,95.40
2019-02-16T20:39:39.785Z,93.40
2019-02-16T20:42:16.409Z,94.80
2019-02-16T20:45:00.321Z,94.00
2019-02-16T20:47:48.864Z,94.90
2019-02-16T20:50:45.787Z,95.00
2019-02-16T20:53:34.033Z,95.00
2019-02-16T20:56:18.684Z,94.40
2019-02-16T20:59:06.539Z,94.90
2019-02-16T21:02:01.661Z,94.00
2019-02-16T21:04:52.616Z,95.00
2019-02-16T21:07:41.917Z,95.10
2019-02-16T21:10:21.429Z,95.70
2019-02-16T21:13:16.577Z,95.90
2019-02-16T21:16:05.594Z,95.00
2019-02-16T21:18:50.104Z,96.20
2019-02-16T21:21:38.264Z,95.40
2019-02-16T21:24:15.637Z,94.70
2019-02-16T21:27:19.394Z,95.90
2019-02-16T21:30:00.605Z,96.00
2019-02-16T21:32:58.788Z,96.00
2019-02-16T21:35:48.117Z,95.30
2019-02-16T21:38:27.876Z,95.00
2019-02-16T21:41:13.785Z,96.30
2019-02-16T21:44:06.108Z,96.60
2019-02-16T21:46:54.686Z,96.00
2019-02-16T21:49:47.173Z,96.10
2019-02-16T21:52:45.501Z,96.50
2019-02-16T21:55:40.795Z,95.40
2019-02-16T21:58:24.873Z,96.20
2019-02-16T22:01:20.262Z,96.10
2019-02-16T22:03:56.566Z,95.70
2019-02-16T22:06:51.940Z,95.90
2019-02-16T22:09:45.240Z,96.40
2019-02-16T22:12:34.158Z,96.10
2019-02-16T22:15:05.169Z,96.40
2019-02-16T22:17:35.505Z,95.50
2019-02-16T22:20:06.236Z,96.90
2019-02-16T22:22:36.604Z,96.50
2019-02-16T22:25:07.137Z,97.00
2019-02-16T22:27:37.473Z,96.40
2019-02-16T22:30:08.745Z,97.20
2019-02-16T22:32:39.069Z,97.20
2019-02-16T22:35:09.446Z,96.40
2019-02-16T22:37:39.781Z,96.60
2019-02-16T22:40:10.637Z,96.10
2019-02-16T22:42:41.357Z,96.50
2019-02-16T22:45:11.941Z,96.50
2019-02-16T22:47:42.636Z,96.70
2019-02-16T22:50:13.965Z,96.30
2019-02-16T22:52:44.298Z,96.70
2019-02-16T22:55:14.625Z,95.80
2019-02-16T22:57:44.976Z,95.40
2019-02-16T23:00:27.727Z,96.50
2019-02-16T23:02:59.669Z,96.70
2019-02-16T23:05:30.065Z,96.80
2019-02-16T23:08:00.394Z,96.80
2019-02-16T23:10:30.745Z,96.70
2019-02-16T23:13:01.101Z,96.70
2019-02-16T23:15:31.433Z,96.80
2019-02-16T23:18:01.843Z,96.30
2019-02-16T23:20:32.165Z,96.90
2019-02-16T23:23:02.573Z,97.30
2019-02-16T23:25:32.897Z,96.70
2019-02-16T23:28:03.281Z,97.70
2019-02-16T23:30:33.693Z,97.40
2019-02-16T23:33:04.465Z,97.60
2019-02-16T23:35:34.794Z,97.30
2019-02-16T23:38:05.261Z,96.80
2019-02-16T23:40:35.601Z,96.90
2019-02-16T23:43:06.061Z,97.30
2019-02-16T23:45:36.471Z,97.00
2019-02-16T23:48:08.242Z,97.40
2019-02-16T23:50:38.573Z,97.20
2019-02-16T23:53:09.029Z,97.10
2019-02-16T23:55:39.372Z,97.70
2019-02-16T23:58:09.723Z,96.60
